sensor_id;sensor_type;location;lat;lon;timestamp;temperature;humidity
70154;DHT22;57519;51.494;-2.626;2022-09-13T00:00:26;18.99;84.02
70154;DHT22;57519;51.494;-2.626;2022-09-13T00:02:51;19.00;84.06
70154;DHT22;57519;51.494;-2.626;2022-09-13T00:05:17;18.86;84.46
70154;DHT22;57519;51.494;-2.626;2022-09-13T00:07:42;18.80;84.64
70154;DHT22;57519;51.494;-2.626;2022-09-13T00:10:08;18.76;84.88
70154;DHT22;57519;51.494;-2.626;2022-09-13T00:12:34;18.68;85.17
70154;DHT22;57519;51.494;-2.626;2022-09-13T00:14:59;18.65;85.31
70154;DHT22;57519;51.494;-2.626;2022-09-13T00:17:27;18.61;85.37
70154;DHT22;57519;51.494;-2.626;2022-09-13T00:19:52;18.53;85.48
70154;DHT22;57519;51.494;-2.626;2022-09-13T00:22:18;18.51;85.58
70154;DHT22;57519;51.494;-2.626;2022-09-13T00:24:43;18.48;85.51
70154;DHT22;57519;51.494;-2.626;2022-09-13T00:27:09;18.47;85.67
70154;DHT22;57519;51.494;-2.626;2022-09-13T00:29:35;18.40;85.91
70154;DHT22;57519;51.494;-2.626;2022-09-13T00:32:00;18.28;86.02
70154;DHT22;57519;51.494;-2.626;2022-09-13T00:34:26;18.23;86.15
70154;DHT22;57519;51.494;-2.626;2022-09-13T00:36:51;18.23;85.85
70154;DHT22;57519;51.494;-2.626;2022-09-13T00:39:17;18.21;85.39
70154;DHT22;57519;51.494;-2.626;2022-09-13T00:41:42;18.14;85.52
70154;DHT22;57519;51.494;-2.626;2022-09-13T00:47:12;18.07;85.35
70154;DHT22;57519;51.494;-2.626;2022-09-13T00:49:39;17.98;85.71
70154;DHT22;57519;51.494;-2.626;2022-09-13T00:52:10;17.94;85.89
70154;DHT22;57519;51.494;-2.626;2022-09-13T00:54:41;17.89;86.23
70154;DHT22;57519;51.494;-2.626;2022-09-13T00:57:10;17.80;86.50
70154;DHT22;57519;51.494;-2.626;2022-09-13T00:59:58;17.70;86.80
70154;DHT22;57519;51.494;-2.626;2022-09-13T01:02:26;17.66;86.97
70154;DHT22;57519;51.494;-2.626;2022-09-13T01:04:52;17.61;87.01
70154;DHT22;57519;51.494;-2.626;2022-09-13T01:07:18;17.59;87.01
70154;DHT22;57519;51.494;-2.626;2022-09-13T01:09:47;17.57;87.01
70154;DHT22;57519;51.494;-2.626;2022-09-13T01:14:52;17.39;87.41
70154;DHT22;57519;51.494;-2.626;2022-09-13T01:17:17;17.34;87.43
70154;DHT22;57519;51.494;-2.626;2022-09-13T01:19:43;17.32;87.67
70154;DHT22;57519;51.494;-2.626;2022-09-13T01:30:37;17.12;87.72
70154;DHT22;57519;51.494;-2.626;2022-09-13T01:39:16;17.01;87.24
70154;DHT22;57519;51.494;-2.626;2022-09-13T01:44:32;17.00;86.50
70154;DHT22;57519;51.494;-2.626;2022-09-13T01:47:18;16.92;86.19
70154;DHT22;57519;51.494;-2.626;2022-09-13T01:52:55;16.90;85.38
70154;DHT22;57519;51.494;-2.626;2022-09-13T02:03:32;16.74;85.18
70154;DHT22;57519;51.494;-2.626;2022-09-13T02:06:07;16.62;85.47
70154;DHT22;57519;51.494;-2.626;2022-09-13T02:08:46;16.59;85.58
70154;DHT22;57519;51.494;-2.626;2022-09-13T02:11:14;16.57;85.71
70154;DHT22;57519;51.494;-2.626;2022-09-13T02:14:00;16.50;85.82
70154;DHT22;57519;51.494;-2.626;2022-09-13T02:16:35;16.43;85.90
70154;DHT22;57519;51.494;-2.626;2022-09-13T02:19:09;16.43;85.78
70154;DHT22;57519;51.494;-2.626;2022-09-13T02:21:39;16.43;85.44
70154;DHT22;57519;51.494;-2.626;2022-09-13T02:24:12;16.43;85.14
70154;DHT22;57519;51.494;-2.626;2022-09-13T02:26:41;16.36;85.02
70154;DHT22;57519;51.494;-2.626;2022-09-13T02:29:13;16.38;84.54
70154;DHT22;57519;51.494;-2.626;2022-09-13T02:32:09;16.30;84.23
70154;DHT22;57519;51.494;-2.626;2022-09-13T02:34:41;16.26;83.58
70154;DHT22;57519;51.494;-2.626;2022-09-13T02:37:08;16.19;83.05
70154;DHT22;57519;51.494;-2.626;2022-09-13T02:39:37;16.15;83.08
70154;DHT22;57519;51.494;-2.626;2022-09-13T02:42:11;16.01;83.02
70154;DHT22;57519;51.494;-2.626;2022-09-13T02:44:42;16.01;82.85
70154;DHT22;57519;51.494;-2.626;2022-09-13T02:52:49;15.80;83.41
70154;DHT22;57519;51.494;-2.626;2022-09-13T02:55:22;15.78;83.50
70154;DHT22;57519;51.494;-2.626;2022-09-13T02:57:54;15.77;83.56
70154;DHT22;57519;51.494;-2.626;2022-09-13T03:00:23;15.80;83.39
70154;DHT22;57519;51.494;-2.626;2022-09-13T03:02:50;15.75;83.40
70154;DHT22;57519;51.494;-2.626;2022-09-13T03:05:16;15.71;83.53
70154;DHT22;57519;51.494;-2.626;2022-09-13T03:07:41;15.73;83.54
70154;DHT22;57519;51.494;-2.626;2022-09-13T03:10:10;15.70;83.34
70154;DHT22;57519;51.494;-2.626;2022-09-13T03:12:56;15.75;83.10
70154;DHT22;57519;51.494;-2.626;2022-09-13T03:18:09;15.68;83.19
70154;DHT22;57519;51.494;-2.626;2022-09-13T03:26:38;15.71;82.80
70154;DHT22;57519;51.494;-2.626;2022-09-13T03:32:02;15.66;82.89
70154;DHT22;57519;51.494;-2.626;2022-09-13T03:34:38;15.74;82.39
70154;DHT22;57519;51.494;-2.626;2022-09-13T03:39:51;15.64;82.68
70154;DHT22;57519;51.494;-2.626;2022-09-13T03:42:25;15.56;82.23
70154;DHT22;57519;51.494;-2.626;2022-09-13T03:44:54;15.50;82.37
70154;DHT22;57519;51.494;-2.626;2022-09-13T03:47:23;15.50;82.23
70154;DHT22;57519;51.494;-2.626;2022-09-13T03:49:50;15.49;81.75
70154;DHT22;57519;51.494;-2.626;2022-09-13T03:52:20;15.51;80.94
70154;DHT22;57519;51.494;-2.626;2022-09-13T03:54:45;15.50;80.90
70154;DHT22;57519;51.494;-2.626;2022-09-13T03:57:19;15.49;80.99
70154;DHT22;57519;51.494;-2.626;2022-09-13T03:59:53;15.46;80.97
70154;DHT22;57519;51.494;-2.626;2022-09-13T04:02:20;15.47;80.83
70154;DHT22;57519;51.494;-2.626;2022-09-13T04:04:46;15.46;80.77
70154;DHT22;57519;51.494;-2.626;2022-09-13T04:07:15;15.40;80.66
70154;DHT22;57519;51.494;-2.626;2022-09-13T04:09:41;15.39;80.47
70154;DHT22;57519;51.494;-2.626;2022-09-13T04:12:07;15.39;80.65
70154;DHT22;57519;51.494;-2.626;2022-09-13T04:14:34;15.36;80.46
70154;DHT22;57519;51.494;-2.626;2022-09-13T04:17:00;15.43;80.31
70154;DHT22;57519;51.494;-2.626;2022-09-13T04:19:25;15.36;80.41
70154;DHT22;57519;51.494;-2.626;2022-09-13T04:21:52;15.37;80.38
70154;DHT22;57519;51.494;-2.626;2022-09-13T04:24:18;15.40;80.20
70154;DHT22;57519;51.494;-2.626;2022-09-13T04:26:48;15.43;80.12
70154;DHT22;57519;51.494;-2.626;2022-09-13T04:29:14;15.42;79.99
70154;DHT22;57519;51.494;-2.626;2022-09-13T04:31:39;15.37;80.00
70154;DHT22;57519;51.494;-2.626;2022-09-13T04:34:05;15.43;79.58
70154;DHT22;57519;51.494;-2.626;2022-09-13T04:36:32;15.44;79.31
70154;DHT22;57519;51.494;-2.626;2022-09-13T04:38:58;15.37;79.70
70154;DHT22;57519;51.494;-2.626;2022-09-13T04:41:24;15.39;79.63
70154;DHT22;57519;51.494;-2.626;2022-09-13T04:43:50;15.35;79.69
70154;DHT22;57519;51.494;-2.626;2022-09-13T04:46:16;15.44;79.27
70154;DHT22;57519;51.494;-2.626;2022-09-13T04:48:41;15.33;79.14
70154;DHT22;57519;51.494;-2.626;2022-09-13T04:51:07;15.35;79.41
70154;DHT22;57519;51.494;-2.626;2022-09-13T04:53:32;15.30;79.03
70154;DHT22;57519;51.494;-2.626;2022-09-13T04:56:02;15.32;79.17
70154;DHT22;57519;51.494;-2.626;2022-09-13T04:58:28;15.35;79.02
70154;DHT22;57519;51.494;-2.626;2022-09-13T05:01:00;15.32;78.97
70154;DHT22;57519;51.494;-2.626;2022-09-13T05:03:28;15.33;78.76
70154;DHT22;57519;51.494;-2.626;2022-09-13T05:06:09;15.33;78.90
70154;DHT22;57519;51.494;-2.626;2022-09-13T05:08:35;15.37;78.12
70154;DHT22;57519;51.494;-2.626;2022-09-13T05:11:01;15.36;78.52
70154;DHT22;57519;51.494;-2.626;2022-09-13T05:13:29;15.35;78.39
70154;DHT22;57519;51.494;-2.626;2022-09-13T05:15:59;15.26;78.34
70154;DHT22;57519;51.494;-2.626;2022-09-13T05:18:29;15.23;78.79
70154;DHT22;57519;51.494;-2.626;2022-09-13T05:20:56;15.25;78.51
70154;DHT22;57519;51.494;-2.626;2022-09-13T05:23:22;15.26;78.39
70154;DHT22;57519;51.494;-2.626;2022-09-13T05:25:56;15.26;78.24
70154;DHT22;57519;51.494;-2.626;2022-09-13T05:28:22;15.30;78.46
70154;DHT22;57519;51.494;-2.626;2022-09-13T05:30:58;15.25;78.57
70154;DHT22;57519;51.494;-2.626;2022-09-13T05:33:25;15.26;78.23
70154;DHT22;57519;51.494;-2.626;2022-09-13T05:35:50;15.23;77.97
70154;DHT22;57519;51.494;-2.626;2022-09-13T05:38:16;15.16;78.49
70154;DHT22;57519;51.494;-2.626;2022-09-13T05:40:42;15.18;78.49
70154;DHT22;57519;51.494;-2.626;2022-09-13T05:43:07;15.22;78.16
70154;DHT22;57519;51.494;-2.626;2022-09-13T05:45:33;15.20;78.65
70154;DHT22;57519;51.494;-2.626;2022-09-13T05:47:58;15.18;78.74
70154;DHT22;57519;51.494;-2.626;2022-09-13T05:50:24;15.18;78.52
70154;DHT22;57519;51.494;-2.626;2022-09-13T05:52:56;15.20;78.54
70154;DHT22;57519;51.494;-2.626;2022-09-13T05:55:22;15.18;78.65
70154;DHT22;57519;51.494;-2.626;2022-09-13T05:57:48;15.22;78.41
70154;DHT22;57519;51.494;-2.626;2022-09-13T06:00:14;15.16;78.37
70154;DHT22;57519;51.494;-2.626;2022-09-13T06:02:40;15.15;77.92
70154;DHT22;57519;51.494;-2.626;2022-09-13T06:05:09;15.15;77.92
70154;DHT22;57519;51.494;-2.626;2022-09-13T06:07:35;15.16;77.95
70154;DHT22;57519;51.494;-2.626;2022-09-13T06:10:01;15.13;77.81
70154;DHT22;57519;51.494;-2.626;2022-09-13T06:12:26;15.13;77.86
70154;DHT22;57519;51.494;-2.626;2022-09-13T06:14:52;15.18;77.69
70154;DHT22;57519;51.494;-2.626;2022-09-13T06:17:17;15.12;77.57
70154;DHT22;57519;51.494;-2.626;2022-09-13T06:19:42;15.16;77.67
70154;DHT22;57519;51.494;-2.626;2022-09-13T06:22:08;15.15;78.08
70154;DHT22;57519;51.494;-2.626;2022-09-13T06:24:34;15.19;77.59
70154;DHT22;57519;51.494;-2.626;2022-09-13T06:27:01;15.22;77.84
70154;DHT22;57519;51.494;-2.626;2022-09-13T06:29:27;15.19;77.99
70154;DHT22;57519;51.494;-2.626;2022-09-13T06:31:52;15.19;77.42
70154;DHT22;57519;51.494;-2.626;2022-09-13T06:34:18;15.23;77.60
70154;DHT22;57519;51.494;-2.626;2022-09-13T06:36:43;15.19;77.67
70154;DHT22;57519;51.494;-2.626;2022-09-13T06:39:09;15.26;77.46
70154;DHT22;57519;51.494;-2.626;2022-09-13T06:41:35;15.20;77.37
70154;DHT22;57519;51.494;-2.626;2022-09-13T06:44:01;15.22;77.64
70154;DHT22;57519;51.494;-2.626;2022-09-13T06:46:28;15.23;77.84
70154;DHT22;57519;51.494;-2.626;2022-09-13T06:48:58;15.23;77.60
70154;DHT22;57519;51.494;-2.626;2022-09-13T06:51:26;15.15;77.75
70154;DHT22;57519;51.494;-2.626;2022-09-13T06:53:54;15.19;77.43
70154;DHT22;57519;51.494;-2.626;2022-09-13T06:56:24;15.20;77.72
70154;DHT22;57519;51.494;-2.626;2022-09-13T06:58:53;15.25;77.50
70154;DHT22;57519;51.494;-2.626;2022-09-13T07:01:30;15.15;77.41
70154;DHT22;57519;51.494;-2.626;2022-09-13T07:04:07;15.20;77.42
70154;DHT22;57519;51.494;-2.626;2022-09-13T07:06:41;15.18;77.36
70154;DHT22;57519;51.494;-2.626;2022-09-13T07:09:11;15.23;76.87
70154;DHT22;57519;51.494;-2.626;2022-09-13T07:11:39;15.22;76.61
70154;DHT22;57519;51.494;-2.626;2022-09-13T07:14:05;15.15;76.44
70154;DHT22;57519;51.494;-2.626;2022-09-13T07:16:34;15.22;76.66
70154;DHT22;57519;51.494;-2.626;2022-09-13T07:19:02;15.22;76.76
70154;DHT22;57519;51.494;-2.626;2022-09-13T07:21:30;15.23;76.38
70154;DHT22;57519;51.494;-2.626;2022-09-13T07:23:56;15.25;76.27
70154;DHT22;57519;51.494;-2.626;2022-09-13T07:26:23;15.23;76.29
70154;DHT22;57519;51.494;-2.626;2022-09-13T07:28:59;15.26;76.49
70154;DHT22;57519;51.494;-2.626;2022-09-13T07:31:30;15.23;76.65
70154;DHT22;57519;51.494;-2.626;2022-09-13T07:34:00;15.30;76.44
70154;DHT22;57519;51.494;-2.626;2022-09-13T07:36:28;15.26;76.58
70154;DHT22;57519;51.494;-2.626;2022-09-13T07:38:54;15.30;77.22
70154;DHT22;57519;51.494;-2.626;2022-09-13T07:41:21;15.33;76.55
70154;DHT22;57519;51.494;-2.626;2022-09-13T07:43:47;15.44;76.49
70154;DHT22;57519;51.494;-2.626;2022-09-13T07:46:24;15.54;75.80
70154;DHT22;57519;51.494;-2.626;2022-09-13T07:48:52;15.37;76.18
70154;DHT22;57519;51.494;-2.626;2022-09-13T07:51:29;15.32;76.52
70154;DHT22;57519;51.494;-2.626;2022-09-13T07:53:56;15.36;76.17
70154;DHT22;57519;51.494;-2.626;2022-09-13T07:56:24;15.29;76.33
70154;DHT22;57519;51.494;-2.626;2022-09-13T07:58:50;15.39;76.67
70154;DHT22;57519;51.494;-2.626;2022-09-13T08:01:19;15.37;76.57
70154;DHT22;57519;51.494;-2.626;2022-09-13T08:03:59;15.36;76.20
70154;DHT22;57519;51.494;-2.626;2022-09-13T08:06:26;15.47;76.28
70154;DHT22;57519;51.494;-2.626;2022-09-13T08:08:53;15.47;76.69
70154;DHT22;57519;51.494;-2.626;2022-09-13T08:11:33;15.50;76.29
70154;DHT22;57519;51.494;-2.626;2022-09-13T08:13:59;15.40;76.11
70154;DHT22;57519;51.494;-2.626;2022-09-13T08:16:26;15.50;76.32
70154;DHT22;57519;51.494;-2.626;2022-09-13T08:18:54;15.50;75.99
70154;DHT22;57519;51.494;-2.626;2022-09-13T08:21:21;15.51;75.79
70154;DHT22;57519;51.494;-2.626;2022-09-13T08:23:47;15.54;75.71
70154;DHT22;57519;51.494;-2.626;2022-09-13T08:26:16;15.47;76.12
70154;DHT22;57519;51.494;-2.626;2022-09-13T08:28:41;15.57;76.00
70154;DHT22;57519;51.494;-2.626;2022-09-13T08:31:12;15.56;75.72
70154;DHT22;57519;51.494;-2.626;2022-09-13T08:33:45;15.54;75.68
70154;DHT22;57519;51.494;-2.626;2022-09-13T08:36:12;15.58;75.66
70154;DHT22;57519;51.494;-2.626;2022-09-13T08:38:38;15.66;75.36
70154;DHT22;57519;51.494;-2.626;2022-09-13T08:43:57;15.80;75.22
70154;DHT22;57519;51.494;-2.626;2022-09-13T08:47:20;15.64;75.18
70154;DHT22;57519;51.494;-2.626;2022-09-13T08:51:49;15.77;74.87
70154;DHT22;57519;51.494;-2.626;2022-09-13T08:54:17;15.93;74.46
70154;DHT22;57519;51.494;-2.626;2022-09-13T08:57:07;15.95;74.12
70154;DHT22;57519;51.494;-2.626;2022-09-13T08:59:43;16.00;74.40
70154;DHT22;57519;51.494;-2.626;2022-09-13T09:05:29;16.11;73.26
70154;DHT22;57519;51.494;-2.626;2022-09-13T09:10:46;16.29;72.96
70154;DHT22;57519;51.494;-2.626;2022-09-13T09:13:31;16.28;72.55
70154;DHT22;57519;51.494;-2.626;2022-09-13T09:16:01;16.21;72.10
70154;DHT22;57519;51.494;-2.626;2022-09-13T09:18:33;16.29;72.10
70154;DHT22;57519;51.494;-2.626;2022-09-13T09:21:00;16.25;71.92
70154;DHT22;57519;51.494;-2.626;2022-09-13T09:23:38;16.28;72.48
70154;DHT22;57519;51.494;-2.626;2022-09-13T09:26:37;16.42;72.44
70154;DHT22;57519;51.494;-2.626;2022-09-13T09:29:28;16.63;70.96
70154;DHT22;57519;51.494;-2.626;2022-09-13T09:37:51;16.62;71.46
70154;DHT22;57519;51.494;-2.626;2022-09-13T09:40:21;16.74;71.95
70154;DHT22;57519;51.494;-2.626;2022-09-13T09:42:47;16.73;71.36
70154;DHT22;57519;51.494;-2.626;2022-09-13T09:45:31;16.64;71.82
70154;DHT22;57519;51.494;-2.626;2022-09-13T09:48:03;16.83;70.96
70154;DHT22;57519;51.494;-2.626;2022-09-13T09:50:36;16.84;71.11
70154;DHT22;57519;51.494;-2.626;2022-09-13T09:53:33;16.95;70.89
70154;DHT22;57519;51.494;-2.626;2022-09-13T09:56:35;17.17;70.41
70154;DHT22;57519;51.494;-2.626;2022-09-13T09:59:01;17.08;69.57
70154;DHT22;57519;51.494;-2.626;2022-09-13T10:01:30;16.92;70.48
70154;DHT22;57519;51.494;-2.626;2022-09-13T10:04:17;17.03;69.99
70154;DHT22;57519;51.494;-2.626;2022-09-13T10:06:43;16.92;69.64
70154;DHT22;57519;51.494;-2.626;2022-09-13T10:11:49;17.11;69.36
70154;DHT22;57519;51.494;-2.626;2022-09-13T10:14:38;17.06;69.16
70154;DHT22;57519;51.494;-2.626;2022-09-13T10:22:38;17.04;69.14
70154;DHT22;57519;51.494;-2.626;2022-09-13T10:25:24;16.83;69.71
70154;DHT22;57519;51.494;-2.626;2022-09-13T10:27:54;16.87;70.22
70154;DHT22;57519;51.494;-2.626;2022-09-13T10:33:01;16.76;70.89
70154;DHT22;57519;51.494;-2.626;2022-09-13T10:35:28;16.83;70.14
70154;DHT22;57519;51.494;-2.626;2022-09-13T10:37:54;16.81;70.24
70154;DHT22;57519;51.494;-2.626;2022-09-13T10:40:32;16.87;69.64
70154;DHT22;57519;51.494;-2.626;2022-09-13T10:43:01;17.01;69.22
70154;DHT22;57519;51.494;-2.626;2022-09-13T10:45:29;17.19;68.74
70154;DHT22;57519;51.494;-2.626;2022-09-13T10:48:11;17.28;69.18
70154;DHT22;57519;51.494;-2.626;2022-09-13T10:50:37;17.25;68.65
70154;DHT22;57519;51.494;-2.626;2022-09-13T10:53:02;17.29;69.27
70154;DHT22;57519;51.494;-2.626;2022-09-13T10:55:36;17.39;69.14
70154;DHT22;57519;51.494;-2.626;2022-09-13T11:03:30;16.98;70.70
70154;DHT22;57519;51.494;-2.626;2022-09-13T11:21:00;16.42;73.09
70154;DHT22;57519;51.494;-2.626;2022-09-13T11:40:52;15.64;79.26
70154;DHT22;57519;51.494;-2.626;2022-09-13T11:43:36;15.58;79.53
70154;DHT22;57519;51.494;-2.626;2022-09-13T11:49:20;15.54;79.18
70154;DHT22;57519;51.494;-2.626;2022-09-13T11:57:57;15.77;82.67
70154;DHT22;57519;51.494;-2.626;2022-09-13T12:00:35;15.98;81.55
70154;DHT22;57519;51.494;-2.626;2022-09-13T12:08:44;15.87;82.00
70154;DHT22;57519;51.494;-2.626;2022-09-13T12:11:33;15.88;81.46
70154;DHT22;57519;51.494;-2.626;2022-09-13T12:14:12;15.88;83.43
70154;DHT22;57519;51.494;-2.626;2022-09-13T12:16:46;16.02;82.57
70154;DHT22;57519;51.494;-2.626;2022-09-13T12:19:17;16.02;82.61
70154;DHT22;57519;51.494;-2.626;2022-09-13T12:21:48;16.11;83.58
70154;DHT22;57519;51.494;-2.626;2022-09-13T12:24:18;16.12;83.48
70154;DHT22;57519;51.494;-2.626;2022-09-13T12:26:59;16.05;83.45
70154;DHT22;57519;51.494;-2.626;2022-09-13T12:32:27;15.95;83.63
70154;DHT22;57519;51.494;-2.626;2022-09-13T12:35:03;15.94;83.83
70154;DHT22;57519;51.494;-2.626;2022-09-13T12:49:09;16.14;84.56
70154;DHT22;57519;51.494;-2.626;2022-09-13T12:51:56;16.16;84.72
70154;DHT22;57519;51.494;-2.626;2022-09-13T13:05:36;16.56;84.08
70154;DHT22;57519;51.494;-2.626;2022-09-13T13:08:05;16.46;81.09
70154;DHT22;57519;51.494;-2.626;2022-09-13T13:10:39;16.42;79.73
70154;DHT22;57519;51.494;-2.626;2022-09-13T13:13:14;16.30;79.87
70154;DHT22;57519;51.494;-2.626;2022-09-13T13:18:23;16.43;81.28
70154;DHT22;57519;51.494;-2.626;2022-09-13T13:23:24;16.55;80.43
70154;DHT22;57519;51.494;-2.626;2022-09-13T13:26:00;16.56;82.45
70154;DHT22;57519;51.494;-2.626;2022-09-13T13:36:30;16.64;80.73
70154;DHT22;57519;51.494;-2.626;2022-09-13T13:39:00;16.71;79.33
70154;DHT22;57519;51.494;-2.626;2022-09-13T13:44:01;16.90;82.28
70154;DHT22;57519;51.494;-2.626;2022-09-13T13:46:48;17.01;79.24
70154;DHT22;57519;51.494;-2.626;2022-09-13T13:57:31;16.63;78.58
70154;DHT22;57519;51.494;-2.626;2022-09-13T14:00:10;16.71;79.48
70154;DHT22;57519;51.494;-2.626;2022-09-13T14:03:09;16.71;78.53
70154;DHT22;57519;51.494;-2.626;2022-09-13T14:05:48;16.60;78.01
70154;DHT22;57519;51.494;-2.626;2022-09-13T14:11:15;16.66;79.28
70154;DHT22;57519;51.494;-2.626;2022-09-13T14:13:56;16.67;79.58
70154;DHT22;57519;51.494;-2.626;2022-09-13T14:19:22;16.71;79.27
70154;DHT22;57519;51.494;-2.626;2022-09-13T14:24:46;16.57;80.17
70154;DHT22;57519;51.494;-2.626;2022-09-13T14:27:21;16.57;78.68
70154;DHT22;57519;51.494;-2.626;2022-09-13T14:30:20;16.50;78.71
70154;DHT22;57519;51.494;-2.626;2022-09-13T14:32:53;16.55;78.67
70154;DHT22;57519;51.494;-2.626;2022-09-13T14:35:34;16.43;79.22
70154;DHT22;57519;51.494;-2.626;2022-09-13T14:38:21;16.43;79.91
70154;DHT22;57519;51.494;-2.626;2022-09-13T14:40:52;16.46;80.58
70154;DHT22;57519;51.494;-2.626;2022-09-13T14:43:23;16.49;80.13
70154;DHT22;57519;51.494;-2.626;2022-09-13T14:45:58;16.50;80.28
70154;DHT22;57519;51.494;-2.626;2022-09-13T14:48:49;16.46;81.20
70154;DHT22;57519;51.494;-2.626;2022-09-13T14:51:31;16.42;79.65
70154;DHT22;57519;51.494;-2.626;2022-09-13T14:54:24;16.49;80.06
70154;DHT22;57519;51.494;-2.626;2022-09-13T14:56:54;16.55;80.40
70154;DHT22;57519;51.494;-2.626;2022-09-13T14:59:35;16.64;80.28
70154;DHT22;57519;51.494;-2.626;2022-09-13T15:02:13;16.60;79.81
70154;DHT22;57519;51.494;-2.626;2022-09-13T15:04:43;16.66;80.23
70154;DHT22;57519;51.494;-2.626;2022-09-13T15:07:28;16.67;81.28
70154;DHT22;57519;51.494;-2.626;2022-09-13T15:12:54;16.84;79.80
70154;DHT22;57519;51.494;-2.626;2022-09-13T15:15:29;16.85;79.97
70154;DHT22;57519;51.494;-2.626;2022-09-13T15:18:00;16.92;80.58
70154;DHT22;57519;51.494;-2.626;2022-09-13T15:20:44;16.98;80.90
70154;DHT22;57519;51.494;-2.626;2022-09-13T15:28:31;16.97;81.43
70154;DHT22;57519;51.494;-2.626;2022-09-13T15:31:00;16.98;80.03
70154;DHT22;57519;51.494;-2.626;2022-09-13T15:33:31;16.90;79.96
70154;DHT22;57519;51.494;-2.626;2022-09-13T15:39:16;16.81;81.03
70154;DHT22;57519;51.494;-2.626;2022-09-13T15:41:59;16.77;80.32
70154;DHT22;57519;51.494;-2.626;2022-09-13T15:44:26;16.83;81.99
70154;DHT22;57519;51.494;-2.626;2022-09-13T15:46:54;16.79;81.12
70154;DHT22;57519;51.494;-2.626;2022-09-13T15:49:23;16.69;81.50
70154;DHT22;57519;51.494;-2.626;2022-09-13T15:51:59;16.70;82.53
70154;DHT22;57519;51.494;-2.626;2022-09-13T15:54:38;16.57;81.95
70154;DHT22;57519;51.494;-2.626;2022-09-13T15:57:12;16.52;80.79
70154;DHT22;57519;51.494;-2.626;2022-09-13T15:59:40;16.53;83.94
70154;DHT22;57519;51.494;-2.626;2022-09-13T16:02:20;16.52;84.51
70154;DHT22;57519;51.494;-2.626;2022-09-13T16:04:46;16.52;85.27
70154;DHT22;57519;51.494;-2.626;2022-09-13T16:07:12;16.53;84.89
70154;DHT22;57519;51.494;-2.626;2022-09-13T16:09:38;16.56;84.34
70154;DHT22;57519;51.494;-2.626;2022-09-13T16:12:06;16.53;84.37
70154;DHT22;57519;51.494;-2.626;2022-09-13T16:14:32;16.59;85.43
70154;DHT22;57519;51.494;-2.626;2022-09-13T16:17:04;16.64;84.93
70154;DHT22;57519;51.494;-2.626;2022-09-13T16:19:31;16.63;84.37
70154;DHT22;57519;51.494;-2.626;2022-09-13T16:21:57;16.62;84.73
70154;DHT22;57519;51.494;-2.626;2022-09-13T16:24:22;16.70;85.76
70154;DHT22;57519;51.494;-2.626;2022-09-13T16:26:47;16.70;85.39
70154;DHT22;57519;51.494;-2.626;2022-09-13T16:29:13;16.71;86.10
70154;DHT22;57519;51.494;-2.626;2022-09-13T16:31:38;16.74;85.95
70154;DHT22;57519;51.494;-2.626;2022-09-13T16:34:05;16.71;84.84
70154;DHT22;57519;51.494;-2.626;2022-09-13T16:36:30;16.74;84.45
70154;DHT22;57519;51.494;-2.626;2022-09-13T16:38:58;16.73;85.11
70154;DHT22;57519;51.494;-2.626;2022-09-13T16:41:23;16.70;84.21
70154;DHT22;57519;51.494;-2.626;2022-09-13T16:43:49;16.66;85.23
70154;DHT22;57519;51.494;-2.626;2022-09-13T16:46:15;16.69;83.53
70154;DHT22;57519;51.494;-2.626;2022-09-13T16:48:41;16.62;84.86
70154;DHT22;57519;51.494;-2.626;2022-09-13T16:51:08;16.53;83.95
70154;DHT22;57519;51.494;-2.626;2022-09-13T16:53:36;16.53;84.13
70154;DHT22;57519;51.494;-2.626;2022-09-13T16:56:11;16.50;84.40
70154;DHT22;57519;51.494;-2.626;2022-09-13T16:58:38;16.48;83.57
70154;DHT22;57519;51.494;-2.626;2022-09-13T17:01:05;16.45;84.56
70154;DHT22;57519;51.494;-2.626;2022-09-13T17:03:31;16.46;84.29
70154;DHT22;57519;51.494;-2.626;2022-09-13T17:06:01;16.42;84.06
70154;DHT22;57519;51.494;-2.626;2022-09-13T17:08:27;16.41;83.37
70154;DHT22;57519;51.494;-2.626;2022-09-13T17:10:52;16.42;84.65
70154;DHT22;57519;51.494;-2.626;2022-09-13T17:13:19;16.39;84.66
70154;DHT22;57519;51.494;-2.626;2022-09-13T17:15:45;16.42;86.23
70154;DHT22;57519;51.494;-2.626;2022-09-13T17:18:10;16.39;85.65
70154;DHT22;57519;51.494;-2.626;2022-09-13T17:20:42;16.38;86.09
70154;DHT22;57519;51.494;-2.626;2022-09-13T17:23:08;16.32;86.01
70154;DHT22;57519;51.494;-2.626;2022-09-13T17:25:33;16.34;86.53
70154;DHT22;57519;51.494;-2.626;2022-09-13T17:27:59;16.34;86.52
70154;DHT22;57519;51.494;-2.626;2022-09-13T17:30:24;16.29;86.90
70154;DHT22;57519;51.494;-2.626;2022-09-13T17:32:50;16.28;87.33
70154;DHT22;57519;51.494;-2.626;2022-09-13T17:35:15;16.22;87.07
70154;DHT22;57519;51.494;-2.626;2022-09-13T17:37:41;16.22;86.65
70154;DHT22;57519;51.494;-2.626;2022-09-13T17:40:07;16.23;85.80
70154;DHT22;57519;51.494;-2.626;2022-09-13T17:42:32;16.14;86.41
70154;DHT22;57519;51.494;-2.626;2022-09-13T17:44:57;16.08;87.78
70154;DHT22;57519;51.494;-2.626;2022-09-13T17:47:23;15.98;87.97
70154;DHT22;57519;51.494;-2.626;2022-09-13T17:49:48;15.91;88.58
70154;DHT22;57519;51.494;-2.626;2022-09-13T17:52:14;15.93;89.84
70154;DHT22;57519;51.494;-2.626;2022-09-13T17:54:39;15.88;89.74
70154;DHT22;57519;51.494;-2.626;2022-09-13T17:57:07;15.83;89.96
70154;DHT22;57519;51.494;-2.626;2022-09-13T17:59:36;15.80;90.33
70154;DHT22;57519;51.494;-2.626;2022-09-13T18:02:02;15.77;89.72
70154;DHT22;57519;51.494;-2.626;2022-09-13T18:04:27;15.75;90.29
70154;DHT22;57519;51.494;-2.626;2022-09-13T18:06:53;15.74;90.17
70154;DHT22;57519;51.494;-2.626;2022-09-13T18:09:19;15.67;90.23
70154;DHT22;57519;51.494;-2.626;2022-09-13T18:11:47;15.66;90.60
70154;DHT22;57519;51.494;-2.626;2022-09-13T18:14:22;15.60;90.66
70154;DHT22;57519;51.494;-2.626;2022-09-13T18:16:48;15.57;90.65
70154;DHT22;57519;51.494;-2.626;2022-09-13T18:19:19;15.53;90.55
70154;DHT22;57519;51.494;-2.626;2022-09-13T18:21:45;15.49;90.14
70154;DHT22;57519;51.494;-2.626;2022-09-13T18:24:11;15.46;90.48
70154;DHT22;57519;51.494;-2.626;2022-09-13T18:26:36;15.46;91.03
70154;DHT22;57519;51.494;-2.626;2022-09-13T18:29:04;15.46;91.38
70154;DHT22;57519;51.494;-2.626;2022-09-13T18:31:31;15.44;91.34
70154;DHT22;57519;51.494;-2.626;2022-09-13T18:34:00;15.40;91.24
70154;DHT22;57519;51.494;-2.626;2022-09-13T18:36:28;15.33;90.70
70154;DHT22;57519;51.494;-2.626;2022-09-13T18:38:55;15.35;90.24
70154;DHT22;57519;51.494;-2.626;2022-09-13T18:41:23;15.33;90.96
70154;DHT22;57519;51.494;-2.626;2022-09-13T18:43:50;15.27;90.94
70154;DHT22;57519;51.494;-2.626;2022-09-13T18:46:18;15.32;91.47
70154;DHT22;57519;51.494;-2.626;2022-09-13T18:48:46;15.29;91.10
70154;DHT22;57519;51.494;-2.626;2022-09-13T18:51:18;15.25;91.70
70154;DHT22;57519;51.494;-2.626;2022-09-13T18:53:44;15.26;91.65
70154;DHT22;57519;51.494;-2.626;2022-09-13T18:56:13;15.25;91.84
70154;DHT22;57519;51.494;-2.626;2022-09-13T18:58:39;15.23;92.09